sensor_id;sensor_type;location;lat;lon;timestamp;P1;durP1;ratioP1;P2;durP2;ratioP2
33814;SDS011;20121;51.910;8.406;2022-11-27T00:02:03;1.47;;;1.17;;
33814;SDS011;20121;51.910;8.406;2022-11-27T00:04:29;1.80;;;1.70;;
33814;SDS011;20121;51.910;8.406;2022-11-27T00:06:54;2.50;;;1.73;;
33814;SDS011;20121;51.910;8.406;2022-11-27T00:09:20;2.23;;;1.73;;
33814;SDS011;20121;51.910;8.406;2022-11-27T00:11:47;2.22;;;1.65;;
33814;SDS011;20121;51.910;8.406;2022-11-27T00:14:13;3.90;;;2.03;;
33814;SDS011;20121;51.910;8.406;2022-11-27T00:16:40;1.90;;;1.75;;
33814;SDS011;20121;51.910;8.406;2022-11-27T00:19:06;2.57;;;2.37;;
33814;SDS011;20121;51.910;8.406;2022-11-27T00:21:33;1.63;;;1.40;;
33814;SDS011;20121;51.910;8.406;2022-11-27T00:24:00;3.63;;;1.42;;
33814;SDS011;20121;51.910;8.406;2022-11-27T00:26:28;3.92;;;2.00;;
33814;SDS011;20121;51.910;8.406;2022-11-27T00:28:55;0.98;;;0.95;;
33814;SDS011;20121;51.910;8.406;2022-11-27T00:31:25;1.97;;;1.50;;
33814;SDS011;20121;51.910;8.406;2022-11-27T00:33:57;1.25;;;1.15;;
33814;SDS011;20121;51.910;8.406;2022-11-27T00:36:24;2.03;;;1.75;;
33814;SDS011;20121;51.910;8.406;2022-11-27T00:38:51;1.60;;;1.20;;
33814;SDS011;20121;51.910;8.406;2022-11-27T00:41:21;1.85;;;1.50;;
33814;SDS011;20121;51.910;8.406;2022-11-27T00:43:49;1.20;;;1.10;;
33814;SDS011;20121;51.910;8.406;2022-11-27T00:46:15;2.03;;;1.65;;
33814;SDS011;20121;51.910;8.406;2022-11-27T00:48:42;4.47;;;1.52;;
33814;SDS011;20121;51.910;8.406;2022-11-27T00:51:10;2.35;;;1.67;;
33814;SDS011;20121;51.910;8.406;2022-11-27T00:53:37;2.75;;;1.35;;
33814;SDS011;20121;51.910;8.406;2022-11-27T00:56:03;1.43;;;1.33;;
33814;SDS011;20121;51.910;8.406;2022-11-27T00:58:29;2.47;;;1.33;;
33814;SDS011;20121;51.910;8.406;2022-11-27T01:00:59;3.23;;;1.73;;
33814;SDS011;20121;51.910;8.406;2022-11-27T01:03:26;1.60;;;1.50;;
33814;SDS011;20121;51.910;8.406;2022-11-27T01:05:52;1.70;;;1.52;;
33814;SDS011;20121;51.910;8.406;2022-11-27T01:08:19;4.18;;;1.80;;
33814;SDS011;20121;51.910;8.406;2022-11-27T01:10:52;4.90;;;2.05;;
33814;SDS011;20121;51.910;8.406;2022-11-27T01:13:21;1.60;;;1.50;;
33814;SDS011;20121;51.910;8.406;2022-11-27T01:15:56;2.40;;;1.38;;
33814;SDS011;20121;51.910;8.406;2022-11-27T01:18:26;2.45;;;1.42;;
33814;SDS011;20121;51.910;8.406;2022-11-27T01:20:52;2.83;;;2.30;;
33814;SDS011;20121;51.910;8.406;2022-11-27T01:23:18;2.80;;;1.85;;
33814;SDS011;20121;51.910;8.406;2022-11-27T01:25:44;1.40;;;1.30;;
33814;SDS011;20121;51.910;8.406;2022-11-27T01:28:10;1.57;;;1.40;;
33814;SDS011;20121;51.910;8.406;2022-11-27T01:30:36;1.83;;;1.13;;
33814;SDS011;20121;51.910;8.406;2022-11-27T01:33:03;2.95;;;1.25;;
33814;SDS011;20121;51.910;8.406;2022-11-27T01:35:28;3.57;;;2.03;;
33814;SDS011;20121;51.910;8.406;2022-11-27T01:37:54;2.00;;;1.80;;
33814;SDS011;20121;51.910;8.406;2022-11-27T01:40:20;5.57;;;1.47;;
33814;SDS011;20121;51.910;8.406;2022-11-27T01:42:45;1.33;;;1.23;;
33814;SDS011;20121;51.910;8.406;2022-11-27T01:45:12;1.40;;;1.13;;
33814;SDS011;20121;51.910;8.406;2022-11-27T01:47:47;1.25;;;1.15;;
33814;SDS011;20121;51.910;8.406;2022-11-27T01:50:28;2.85;;;1.55;;
33814;SDS011;20121;51.910;8.406;2022-11-27T01:52:58;1.75;;;1.60;;
33814;SDS011;20121;51.910;8.406;2022-11-27T01:58:04;1.42;;;1.33;;
33814;SDS011;20121;51.910;8.406;2022-11-27T02:00:51;3.17;;;1.40;;
33814;SDS011;20121;51.910;8.406;2022-11-27T02:03:17;1.00;;;0.90;;
33814;SDS011;20121;51.910;8.406;2022-11-27T02:05:43;2.63;;;1.47;;
33814;SDS011;20121;51.910;8.406;2022-11-27T02:08:09;3.53;;;0.97;;
33814;SDS011;20121;51.910;8.406;2022-11-27T02:10:56;3.50;;;1.90;;
33814;SDS011;20121;51.910;8.406;2022-11-27T02:13:51;1.55;;;1.45;;
33814;SDS011;20121;51.910;8.406;2022-11-27T02:17:10;1.52;;;1.35;;
33814;SDS011;20121;51.910;8.406;2022-11-27T02:22:02;2.30;;;1.55;;
33814;SDS011;20121;51.910;8.406;2022-11-27T02:29:58;2.28;;;1.48;;
33814;SDS011;20121;51.910;8.406;2022-11-27T02:33:10;1.48;;;0.90;;
33814;SDS011;20121;51.910;8.406;2022-11-27T02:35:19;1.85;;;1.60;;
33814;SDS011;20121;51.910;8.406;2022-11-27T02:38:00;1.25;;;1.15;;
33814;SDS011;20121;51.910;8.406;2022-11-27T02:40:43;1.17;;;1.00;;
33814;SDS011;20121;51.910;8.406;2022-11-27T02:43:29;1.38;;;1.13;;
33814;SDS011;20121;51.910;8.406;2022-11-27T02:46:00;2.80;;;1.30;;
33814;SDS011;20121;51.910;8.406;2022-11-27T02:48:32;1.30;;;1.08;;
33814;SDS011;20121;51.910;8.406;2022-11-27T02:51:01;4.05;;;1.60;;
33814;SDS011;20121;51.910;8.406;2022-11-27T02:53:31;1.60;;;1.25;;
33814;SDS011;20121;51.910;8.406;2022-11-27T02:56:02;2.88;;;1.40;;
33814;SDS011;20121;51.910;8.406;2022-11-27T02:58:31;1.40;;;1.13;;
33814;SDS011;20121;51.910;8.406;2022-11-27T03:01:00;1.25;;;1.08;;
33814;SDS011;20121;51.910;8.406;2022-11-27T03:03:28;2.03;;;1.58;;
33814;SDS011;20121;51.910;8.406;2022-11-27T03:06:00;5.40;;;1.60;;
33814;SDS011;20121;51.910;8.406;2022-11-27T03:08:34;1.63;;;1.42;;
33814;SDS011;20121;51.910;8.406;2022-11-27T03:11:07;1.88;;;1.13;;
33814;SDS011;20121;51.910;8.406;2022-11-27T03:13:35;1.15;;;1.05;;
33814;SDS011;20121;51.910;8.406;2022-11-27T03:19:10;1.60;;;1.50;;
33814;SDS011;20121;51.910;8.406;2022-11-27T03:21:52;1.00;;;1.00;;
33814;SDS011;20121;51.910;8.406;2022-11-27T03:24:23;3.05;;;0.93;;
33814;SDS011;20121;51.910;8.406;2022-11-27T03:26:49;1.65;;;1.30;;
33814;SDS011;20121;51.910;8.406;2022-11-27T03:29:17;1.23;;;0.98;;
33814;SDS011;20121;51.910;8.406;2022-11-27T03:31:51;1.48;;;1.08;;
33814;SDS011;20121;51.910;8.406;2022-11-27T03:34:17;1.10;;;1.00;;
33814;SDS011;20121;51.910;8.406;2022-11-27T03:36:44;2.10;;;1.40;;
33814;SDS011;20121;51.910;8.406;2022-11-27T03:39:10;1.50;;;1.20;;
33814;SDS011;20121;51.910;8.406;2022-11-27T03:44:31;1.27;;;1.08;;
33814;SDS011;20121;51.910;8.406;2022-11-27T03:47:20;2.70;;;1.48;;
33814;SDS011;20121;51.910;8.406;2022-11-27T03:50:09;2.08;;;0.98;;
33814;SDS011;20121;51.910;8.406;2022-11-27T03:57:00;1.00;;;0.90;;
33814;SDS011;20121;51.910;8.406;2022-11-27T04:01:27;1.13;;;1.02;;
33814;SDS011;20121;51.910;8.406;2022-11-27T04:03:54;0.77;;;0.65;;
33814;SDS011;20121;51.910;8.406;2022-11-27T04:06:19;2.13;;;1.43;;
33814;SDS011;20121;51.910;8.406;2022-11-27T04:08:45;1.37;;;1.23;;
33814;SDS011;20121;51.910;8.406;2022-11-27T04:11:12;1.17;;;1.08;;
33814;SDS011;20121;51.910;8.406;2022-11-27T04:13:38;1.05;;;0.95;;
33814;SDS011;20121;51.910;8.406;2022-11-27T04:16:04;1.83;;;1.40;;
33814;SDS011;20121;51.910;8.406;2022-11-27T04:18:30;3.35;;;1.60;;
33814;SDS011;20121;51.910;8.406;2022-11-27T04:20:56;2.10;;;1.50;;
33814;SDS011;20121;51.910;8.406;2022-11-27T04:23:21;1.10;;;1.00;;
33814;SDS011;20121;51.910;8.406;2022-11-27T04:25:47;0.90;;;0.90;;
33814;SDS011;20121;51.910;8.406;2022-11-27T04:28:13;1.33;;;1.17;;
33814;SDS011;20121;51.910;8.406;2022-11-27T04:30:41;1.65;;;0.93;;
33814;SDS011;20121;51.910;8.406;2022-11-27T04:33:08;0.98;;;0.90;;
33814;SDS011;20121;51.910;8.406;2022-11-27T04:35:33;1.70;;;1.40;;
33814;SDS011;20121;51.910;8.406;2022-11-27T04:37:59;1.27;;;1.13;;
33814;SDS011;20121;51.910;8.406;2022-11-27T04:40:25;1.10;;;1.00;;
33814;SDS011;20121;51.910;8.406;2022-11-27T04:42:50;1.23;;;1.13;;
33814;SDS011;20121;51.910;8.406;2022-11-27T04:45:16;3.20;;;1.80;;
33814;SDS011;20121;51.910;8.406;2022-11-27T04:47:45;1.97;;;1.00;;
33814;SDS011;20121;51.910;8.406;2022-11-27T04:50:16;1.60;;;1.10;;
33814;SDS011;20121;51.910;8.406;2022-11-27T04:52:42;1.60;;;1.10;;
33814;SDS011;20121;51.910;8.406;2022-11-27T04:55:10;4.18;;;1.67;;
33814;SDS011;20121;51.910;8.406;2022-11-27T04:57:35;2.40;;;1.50;;
33814;SDS011;20121;51.910;8.406;2022-11-27T05:00:01;1.60;;;1.07;;
33814;SDS011;20121;51.910;8.406;2022-11-27T05:02:28;2.95;;;1.27;;
33814;SDS011;20121;51.910;8.406;2022-11-27T05:04:54;1.47;;;1.07;;
33814;SDS011;20121;51.910;8.406;2022-11-27T05:07:20;1.43;;;1.23;;
33814;SDS011;20121;51.910;8.406;2022-11-27T05:09:45;1.13;;;1.03;;
33814;SDS011;20121;51.910;8.406;2022-11-27T05:12:11;1.00;;;0.90;;
33814;SDS011;20121;51.910;8.406;2022-11-27T05:14:36;0.80;;;0.80;;
33814;SDS011;20121;51.910;8.406;2022-11-27T05:17:02;2.03;;;1.20;;
33814;SDS011;20121;51.910;8.406;2022-11-27T05:19:28;1.97;;;1.60;;
33814;SDS011;20121;51.910;8.406;2022-11-27T05:21:55;1.20;;;1.10;;
33814;SDS011;20121;51.910;8.406;2022-11-27T05:24:22;1.30;;;1.20;;
33814;SDS011;20121;51.910;8.406;2022-11-27T05:26:50;1.35;;;1.25;;
33814;SDS011;20121;51.910;8.406;2022-11-27T05:29:16;9.30;;;1.35;;
33814;SDS011;20121;51.910;8.406;2022-11-27T05:31:43;1.98;;;1.70;;
33814;SDS011;20121;51.910;8.406;2022-11-27T05:34:11;1.67;;;1.58;;
33814;SDS011;20121;51.910;8.406;2022-11-27T05:36:37;1.40;;;1.30;;
33814;SDS011;20121;51.910;8.406;2022-11-27T05:39:04;2.65;;;1.33;;
33814;SDS011;20121;51.910;8.406;2022-11-27T05:41:31;1.40;;;1.17;;
33814;SDS011;20121;51.910;8.406;2022-11-27T05:43:57;2.75;;;1.60;;
33814;SDS011;20121;51.910;8.406;2022-11-27T05:46:23;1.50;;;1.30;;
33814;SDS011;20121;51.910;8.406;2022-11-27T05:48:49;1.60;;;1.27;;
33814;SDS011;20121;51.910;8.406;2022-11-27T05:51:14;1.17;;;1.00;;
33814;SDS011;20121;51.910;8.406;2022-11-27T05:53:40;1.45;;;1.10;;
33814;SDS011;20121;51.910;8.406;2022-11-27T05:56:07;1.20;;;1.10;;
33814;SDS011;20121;51.910;8.406;2022-11-27T05:58:34;1.48;;;1.30;;
33814;SDS011;20121;51.910;8.406;2022-11-27T06:01:00;1.10;;;1.00;;
33814;SDS011;20121;51.910;8.406;2022-11-27T06:03:26;1.10;;;1.00;;
33814;SDS011;20121;51.910;8.406;2022-11-27T06:05:52;1.97;;;1.00;;
33814;SDS011;20121;51.910;8.406;2022-11-27T06:08:18;1.30;;;0.83;;
33814;SDS011;20121;51.910;8.406;2022-11-27T06:10:44;2.38;;;0.93;;
33814;SDS011;20121;51.910;8.406;2022-11-27T06:13:10;1.15;;;1.05;;
33814;SDS011;20121;51.910;8.406;2022-11-27T06:15:37;3.20;;;1.13;;
33814;SDS011;20121;51.910;8.406;2022-11-27T06:18:03;1.20;;;0.98;;
33814;SDS011;20121;51.910;8.406;2022-11-27T06:20:28;2.70;;;1.13;;
33814;SDS011;20121;51.910;8.406;2022-11-27T06:22:54;1.77;;;1.10;;
33814;SDS011;20121;51.910;8.406;2022-11-27T06:25:20;0.90;;;0.90;;
33814;SDS011;20121;51.910;8.406;2022-11-27T06:27:47;1.45;;;1.00;;
33814;SDS011;20121;51.910;8.406;2022-11-27T06:30:12;2.20;;;1.30;;
33814;SDS011;20121;51.910;8.406;2022-11-27T06:32:38;3.30;;;1.03;;
33814;SDS011;20121;51.910;8.406;2022-11-27T06:35:04;2.03;;;1.43;;
33814;SDS011;20121;51.910;8.406;2022-11-27T06:37:30;1.50;;;1.40;;
33814;SDS011;20121;51.910;8.406;2022-11-27T06:39:55;1.53;;;1.43;;
33814;SDS011;20121;51.910;8.406;2022-11-27T06:42:21;2.50;;;1.37;;
33814;SDS011;20121;51.910;8.406;2022-11-27T06:44:47;1.40;;;1.30;;
33814;SDS011;20121;51.910;8.406;2022-11-27T06:47:12;1.13;;;1.03;;
33814;SDS011;20121;51.910;8.406;2022-11-27T06:49:38;1.57;;;1.10;;
33814;SDS011;20121;51.910;8.406;2022-11-27T06:52:03;1.73;;;1.00;;
33814;SDS011;20121;51.910;8.406;2022-11-27T06:54:29;1.25;;;1.08;;
33814;SDS011;20121;51.910;8.406;2022-11-27T06:56:55;2.10;;;1.43;;
33814;SDS011;20121;51.910;8.406;2022-11-27T06:59:22;2.17;;;1.10;;
33814;SDS011;20121;51.910;8.406;2022-11-27T07:01:48;1.63;;;1.50;;
33814;SDS011;20121;51.910;8.406;2022-11-27T07:04:13;1.10;;;1.00;;
33814;SDS011;20121;51.910;8.406;2022-11-27T07:06:40;1.30;;;1.20;;
33814;SDS011;20121;51.910;8.406;2022-11-27T07:09:06;1.38;;;0.93;;
33814;SDS011;20121;51.910;8.406;2022-11-27T07:11:33;3.85;;;1.13;;
33814;SDS011;20121;51.910;8.406;2022-11-27T07:14:00;2.17;;;1.35;;
33814;SDS011;20121;51.910;8.406;2022-11-27T07:16:28;1.65;;;1.38;;
33814;SDS011;20121;51.910;8.406;2022-11-27T07:18:59;12.30;;;2.15;;
33814;SDS011;20121;51.910;8.406;2022-11-27T07:21:27;1.88;;;1.70;;
33814;SDS011;20121;51.910;8.406;2022-11-27T07:23:53;3.58;;;1.33;;
33814;SDS011;20121;51.910;8.406;2022-11-27T07:26:24;1.88;;;0.93;;
33814;SDS011;20121;51.910;8.406;2022-11-27T07:28:50;2.22;;;1.60;;
33814;SDS011;20121;51.910;8.406;2022-11-27T07:31:17;2.07;;;1.30;;
33814;SDS011;20121;51.910;8.406;2022-11-27T07:33:44;1.85;;;1.17;;
33814;SDS011;20121;51.910;8.406;2022-11-27T07:36:14;5.00;;;1.50;;
33814;SDS011;20121;51.910;8.406;2022-11-27T07:38:42;1.58;;;1.35;;
33814;SDS011;20121;51.910;8.406;2022-11-27T07:41:08;1.33;;;1.10;;
33814;SDS011;20121;51.910;8.406;2022-11-27T07:43:34;1.97;;;1.60;;
33814;SDS011;20121;51.910;8.406;2022-11-27T07:46:14;2.47;;;1.50;;
33814;SDS011;20121;51.910;8.406;2022-11-27T07:48:41;1.52;;;1.20;;
33814;SDS011;20121;51.910;8.406;2022-11-27T07:51:08;1.13;;;0.93;;
33814;SDS011;20121;51.910;8.406;2022-11-27T07:53:35;2.03;;;1.15;;
33814;SDS011;20121;51.910;8.406;2022-11-27T07:56:02;1.10;;;1.00;;
33814;SDS011;20121;51.910;8.406;2022-11-27T07:58:28;1.50;;;1.05;;
33814;SDS011;20121;51.910;8.406;2022-11-27T08:00:54;1.37;;;1.27;;
33814;SDS011;20121;51.910;8.406;2022-11-27T08:03:20;1.73;;;1.37;;
33814;SDS011;20121;51.910;8.406;2022-11-27T08:05:46;5.20;;;1.88;;
33814;SDS011;20121;51.910;8.406;2022-11-27T08:08:12;1.07;;;0.80;;
33814;SDS011;20121;51.910;8.406;2022-11-27T08:10:38;2.23;;;1.47;;
33814;SDS011;20121;51.910;8.406;2022-11-27T08:13:04;0.98;;;0.90;;
33814;SDS011;20121;51.910;8.406;2022-11-27T08:15:31;1.02;;;0.90;;
33814;SDS011;20121;51.910;8.406;2022-11-27T08:17:57;1.53;;;1.43;;
33814;SDS011;20121;51.910;8.406;2022-11-27T08:20:23;1.40;;;1.30;;
33814;SDS011;20121;51.910;8.406;2022-11-27T08:22:49;2.07;;;1.20;;
33814;SDS011;20121;51.910;8.406;2022-11-27T08:25:15;1.25;;;1.15;;
33814;SDS011;20121;51.910;8.406;2022-11-27T08:27:41;1.70;;;1.45;;
33814;SDS011;20121;51.910;8.406;2022-11-27T08:30:07;1.10;;;1.00;;
33814;SDS011;20121;51.910;8.406;2022-11-27T08:32:33;2.38;;;1.45;;
33814;SDS011;20121;51.910;8.406;2022-11-27T08:35:02;1.45;;;0.73;;
33814;SDS011;20121;51.910;8.406;2022-11-27T08:37:27;1.10;;;1.00;;
33814;SDS011;20121;51.910;8.406;2022-11-27T08:39:53;1.20;;;1.10;;
33814;SDS011;20121;51.910;8.406;2022-11-27T08:42:18;1.30;;;1.07;;
33814;SDS011;20121;51.910;8.406;2022-11-27T08:44:44;1.20;;;1.10;;
33814;SDS011;20121;51.910;8.406;2022-11-27T08:47:10;1.40;;;1.30;;
33814;SDS011;20121;51.910;8.406;2022-11-27T08:49:35;1.30;;;1.03;;
33814;SDS011;20121;51.910;8.406;2022-11-27T08:52:01;1.53;;;1.10;;
33814;SDS011;20121;51.910;8.406;2022-11-27T08:54:27;1.17;;;1.07;;
33814;SDS011;20121;51.910;8.406;2022-11-27T08:56:52;1.07;;;0.83;;
33814;SDS011;20121;51.910;8.406;2022-11-27T08:59:18;1.30;;;1.20;;
33814;SDS011;20121;51.910;8.406;2022-11-27T09:01:43;2.80;;;1.90;;
33814;SDS011;20121;51.910;8.406;2022-11-27T09:04:09;1.77;;;0.90;;
33814;SDS011;20121;51.910;8.406;2022-11-27T09:06:35;3.57;;;1.37;;
33814;SDS011;20121;51.910;8.406;2022-11-27T09:09:02;1.30;;;1.20;;
33814;SDS011;20121;51.910;8.406;2022-11-27T09:11:29;1.35;;;1.25;;
33814;SDS011;20121;51.910;8.406;2022-11-27T09:13:57;1.15;;;0.90;;
33814;SDS011;20121;51.910;8.406;2022-11-27T09:16:24;1.88;;;1.33;;
33814;SDS011;20121;51.910;8.406;2022-11-27T09:18:50;1.70;;;1.30;;
33814;SDS011;20121;51.910;8.406;2022-11-27T09:21:17;1.10;;;1.00;;
33814;SDS011;20121;51.910;8.406;2022-11-27T09:23:44;3.35;;;1.20;;
33814;SDS011;20121;51.910;8.406;2022-11-27T09:26:11;1.20;;;1.10;;
33814;SDS011;20121;51.910;8.406;2022-11-27T09:28:38;3.03;;;1.10;;
33814;SDS011;20121;51.910;8.406;2022-11-27T09:31:05;1.63;;;1.52;;
33814;SDS011;20121;51.910;8.406;2022-11-27T09:33:33;0.93;;;0.90;;
33814;SDS011;20121;51.910;8.406;2022-11-27T09:36:08;2.67;;;1.35;;
33814;SDS011;20121;51.910;8.406;2022-11-27T09:38:38;1.30;;;1.20;;
33814;SDS011;20121;51.910;8.406;2022-11-27T09:44:04;1.80;;;1.48;;
33814;SDS011;20121;51.910;8.406;2022-11-27T09:46:51;1.60;;;1.50;;
33814;SDS011;20121;51.910;8.406;2022-11-27T09:49:25;3.40;;;1.70;;
33814;SDS011;20121;51.910;8.406;2022-11-27T09:51:57;1.50;;;1.35;;
33814;SDS011;20121;51.910;8.406;2022-11-27T09:54:33;1.20;;;1.10;;
33814;SDS011;20121;51.910;8.406;2022-11-27T09:57:13;1.35;;;1.00;;
33814;SDS011;20121;51.910;8.406;2022-11-27T09:59:50;1.27;;;1.15;;
33814;SDS011;20121;51.910;8.406;2022-11-27T10:02:18;1.30;;;1.20;;
33814;SDS011;20121;51.910;8.406;2022-11-27T10:04:52;3.03;;;1.70;;
33814;SDS011;20121;51.910;8.406;2022-11-27T10:07:22;2.20;;;1.65;;
33814;SDS011;20121;51.910;8.406;2022-11-27T10:10:11;4.13;;;1.50;;
33814;SDS011;20121;51.910;8.406;2022-11-27T10:15:36;1.40;;;1.10;;
33814;SDS011;20121;51.910;8.406;2022-11-27T10:18:10;1.67;;;0.80;;
33814;SDS011;20121;51.910;8.406;2022-11-27T10:21:20;1.15;;;1.05;;
33814;SDS011;20121;51.910;8.406;2022-11-27T10:26:19;1.23;;;1.10;;
33814;SDS011;20121;51.910;8.406;2022-11-27T10:31:36;2.05;;;1.27;;
33814;SDS011;20121;51.910;8.406;2022-11-27T10:39:48;2.30;;;2.10;;
33814;SDS011;20121;51.910;8.406;2022-11-27T10:42:21;2.80;;;2.33;;
33814;SDS011;20121;51.910;8.406;2022-11-27T10:44:59;3.70;;;2.10;;
33814;SDS011;20121;51.910;8.406;2022-11-27T10:47:43;3.30;;;2.70;;
33814;SDS011;20121;51.910;8.406;2022-11-27T10:50:17;2.55;;;2.33;;
33814;SDS011;20121;51.910;8.406;2022-11-27T10:52:54;1.90;;;1.80;;
33814;SDS011;20121;51.910;8.406;2022-11-27T10:55:48;7.80;;;2.47;;
33814;SDS011;20121;51.910;8.406;2022-11-27T11:01:02;3.17;;;2.45;;
33814;SDS011;20121;51.910;8.406;2022-11-27T11:03:29;2.55;;;2.35;;
33814;SDS011;20121;51.910;8.406;2022-11-27T11:05:56;4.10;;;2.87;;
33814;SDS011;20121;51.910;8.406;2022-11-27T11:08:24;7.53;;;3.00;;
33814;SDS011;20121;51.910;8.406;2022-11-27T11:13:30;4.18;;;3.78;;
33814;SDS011;20121;51.910;8.406;2022-11-27T11:16:04;5.20;;;2.80;;
33814;SDS011;20121;51.910;8.406;2022-11-27T11:18:46;3.83;;;3.00;;
33814;SDS011;20121;51.910;8.406;2022-11-27T11:24:01;2.47;;;2.28;;
33814;SDS011;20121;51.910;8.406;2022-11-27T11:29:05;3.45;;;2.80;;
33814;SDS011;20121;51.910;8.406;2022-11-27T11:31:52;8.75;;;2.75;;
33814;SDS011;20121;51.910;8.406;2022-11-27T11:34:24;1.75;;;1.60;;
33814;SDS011;20121;51.910;8.406;2022-11-27T11:36:59;2.40;;;1.80;;
33814;SDS011;20121;51.910;8.406;2022-11-27T11:39:27;2.45;;;2.00;;
33814;SDS011;20121;51.910;8.406;2022-11-27T11:41:55;3.10;;;2.33;;
33814;SDS011;20121;51.910;8.406;2022-11-27T11:44:22;2.50;;;1.90;;
33814;SDS011;20121;51.910;8.406;2022-11-27T11:46:54;2.63;;;2.15;;
33814;SDS011;20121;51.910;8.406;2022-11-27T11:51:51;3.20;;;1.60;;
33814;SDS011;20121;51.910;8.406;2022-11-27T11:57:02;3.83;;;2.08;;
33814;SDS011;20121;51.910;8.406;2022-11-27T11:59:43;2.60;;;2.38;;
33814;SDS011;20121;51.910;8.406;2022-11-27T12:02:38;3.20;;;2.35;;
33814;SDS011;20121;51.910;8.406;2022-11-27T12:21:50;2.03;;;1.83;;
33814;SDS011;20121;51.910;8.406;2022-11-27T12:35:41;1.58;;;1.48;;
33814;SDS011;20121;51.910;8.406;2022-11-27T12:41:42;3.13;;;1.90;;
33814;SDS011;20121;51.910;8.406;2022-11-27T12:44:22;2.58;;;2.33;;
33814;SDS011;20121;51.910;8.406;2022-11-27T12:47:10;2.28;;;2.08;;
33814;SDS011;20121;51.910;8.406;2022-11-27T12:49:41;3.33;;;1.75;;
33814;SDS011;20121;51.910;8.406;2022-11-27T12:52:30;4.07;;;2.20;;
33814;SDS011;20121;51.910;8.406;2022-11-27T12:55:04;4.25;;;2.65;;
33814;SDS011;20121;51.910;8.406;2022-11-27T13:00:26;2.25;;;2.00;;
33814;SDS011;20121;51.910;8.406;2022-11-27T13:05:43;1.40;;;1.25;;
33814;SDS011;20121;51.910;8.406;2022-11-27T13:08:25;2.35;;;1.63;;
33814;SDS011;20121;51.910;8.406;2022-11-27T13:11:03;2.03;;;1.90;;
33814;SDS011;20121;51.910;8.406;2022-11-27T13:13:34;1.60;;;1.50;;
33814;SDS011;20121;51.910;8.406;2022-11-27T13:21:29;2.70;;;1.65;;
33814;SDS011;20121;51.910;8.406;2022-11-27T13:24:01;4.35;;;2.13;;
33814;SDS011;20121;51.910;8.406;2022-11-27T13:26:29;3.22;;;1.83;;
33814;SDS011;20121;51.910;8.406;2022-11-27T13:29:00;2.70;;;1.63;;
33814;SDS011;20121;51.910;8.406;2022-11-27T13:31:46;1.63;;;1.33;;
33814;SDS011;20121;51.910;8.406;2022-11-27T13:34:19;2.95;;;1.73;;
33814;SDS011;20121;51.910;8.406;2022-11-27T13:37:04;2.03;;;1.60;;
33814;SDS011;20121;51.910;8.406;2022-11-27T13:44:35;2.15;;;1.52;;
33814;SDS011;20121;51.910;8.406;2022-11-27T13:47:07;2.25;;;1.55;;
33814;SDS011;20121;51.910;8.406;2022-11-27T13:49:36;2.28;;;1.90;;
33814;SDS011;20121;51.910;8.406;2022-11-27T13:52:09;3.20;;;1.42;;
33814;SDS011;20121;51.910;8.406;2022-11-27T13:54:53;2.25;;;1.30;;
33814;SDS011;20121;51.910;8.406;2022-11-27T13:57:21;2.05;;;1.63;;
33814;SDS011;20121;51.910;8.406;2022-11-27T13:59:55;4.25;;;1.80;;
33814;SDS011;20121;51.910;8.406;2022-11-27T14:02:22;1.77;;;1.30;;
33814;SDS011;20121;51.910;8.406;2022-11-27T14:04:49;1.65;;;1.00;;
33814;SDS011;20121;51.910;8.406;2022-11-27T14:07:16;1.75;;;1.13;;
33814;SDS011;20121;51.910;8.406;2022-11-27T14:09:53;1.95;;;1.48;;
33814;SDS011;20121;51.910;8.406;2022-11-27T14:12:40;2.63;;;2.03;;
33814;SDS011;20121;51.910;8.406;2022-11-27T14:17:41;1.00;;;0.90;;
33814;SDS011;20121;51.910;8.406;2022-11-27T14:22:45;2.30;;;1.30;;
33814;SDS011;20121;51.910;8.406;2022-11-27T14:25:36;3.03;;;1.60;;
33814;SDS011;20121;51.910;8.406;2022-11-27T14:30:50;2.65;;;1.40;;
33814;SDS011;20121;51.910;8.406;2022-11-27T14:33:18;2.58;;;1.10;;
33814;SDS011;20121;51.910;8.406;2022-11-27T14:35:58;1.55;;;1.05;;
33814;SDS011;20121;51.910;8.406;2022-11-27T14:38:26;1.33;;;0.95;;
33814;SDS011;20121;51.910;8.406;2022-11-27T14:40:53;1.38;;;1.27;;
33814;SDS011;20121;51.910;8.406;2022-11-27T14:43:30;1.52;;;1.30;;
33814;SDS011;20121;51.910;8.406;2022-11-27T14:45:56;2.40;;;1.30;;
33814;SDS011;20121;51.910;8.406;2022-11-27T14:48:40;1.55;;;1.45;;
33814;SDS011;20121;51.910;8.406;2022-11-27T14:51:07;3.17;;;1.65;;
33814;SDS011;20121;51.910;8.406;2022-11-27T14:53:47;1.15;;;1.02;;
33814;SDS011;20121;51.910;8.406;2022-11-27T14:56:24;1.70;;;1.05;;
33814;SDS011;20121;51.910;8.406;2022-11-27T14:58:53;1.42;;;1.33;;
33814;SDS011;20121;51.910;8.406;2022-11-27T15:01:26;1.50;;;1.30;;
33814;SDS011;20121;51.910;8.406;2022-11-27T15:04:01;1.55;;;1.35;;
33814;SDS011;20121;51.910;8.406;2022-11-27T15:06:34;2.63;;;1.35;;
33814;SDS011;20121;51.910;8.406;2022-11-27T15:09:03;1.65;;;1.20;;
33814;SDS011;20121;51.910;8.406;2022-11-27T15:11:29;1.42;;;1.33;;
33814;SDS011;20121;51.910;8.406;2022-11-27T15:13:56;4.18;;;1.73;;
33814;SDS011;20121;51.910;8.406;2022-11-27T15:16:24;1.63;;;1.52;;
33814;SDS011;20121;51.910;8.406;2022-11-27T15:18:54;1.50;;;1.40;;
33814;SDS011;20121;51.910;8.406;2022-11-27T15:21:26;2.25;;;1.25;;
33814;SDS011;20121;51.910;8.406;2022-11-27T15:23:53;3.08;;;1.30;;
33814;SDS011;20121;51.910;8.406;2022-11-27T15:26:33;2.88;;;0.98;;
33814;SDS011;20121;51.910;8.406;2022-11-27T15:29:04;4.15;;;1.30;;
33814;SDS011;20121;51.910;8.406;2022-11-27T15:31:49;2.55;;;1.00;;
33814;SDS011;20121;51.910;8.406;2022-11-27T15:36:41;4.53;;;1.23;;
33814;SDS011;20121;51.910;8.406;2022-11-27T15:39:18;2.65;;;1.10;;
33814;SDS011;20121;51.910;8.406;2022-11-27T15:41:50;1.20;;;1.00;;
33814;SDS011;20121;51.910;8.406;2022-11-27T15:44:21;1.55;;;1.45;;
33814;SDS011;20121;51.910;8.406;2022-11-27T15:46:48;1.50;;;1.05;;
33814;SDS011;20121;51.910;8.406;2022-11-27T15:49:14;1.02;;;0.93;;
33814;SDS011;20121;51.910;8.406;2022-11-27T15:51:41;2.47;;;1.08;;
33814;SDS011;20121;51.910;8.406;2022-11-27T15:54:07;1.60;;;0.93;;
33814;SDS011;20121;51.910;8.406;2022-11-27T15:56:33;1.07;;;0.90;;
33814;SDS011;20121;51.910;8.406;2022-11-27T15:58:59;2.03;;;0.90;;
33814;SDS011;20121;51.910;8.406;2022-11-27T16:01:24;6.70;;;1.33;;
33814;SDS011;20121;51.910;8.406;2022-11-27T16:03:50;1.23;;;1.10;;
33814;SDS011;20121;51.910;8.406;2022-11-27T16:06:16;1.70;;;1.30;;
33814;SDS011;20121;51.910;8.406;2022-11-27T16:08:42;1.83;;;1.30;;
33814;SDS011;20121;51.910;8.406;2022-11-27T16:11:09;1.37;;;1.27;;
33814;SDS011;20121;51.910;8.406;2022-11-27T16:13:38;1.63;;;0.90;;
33814;SDS011;20121;51.910;8.406;2022-11-27T16:16:05;2.70;;;1.83;;
33814;SDS011;20121;51.910;8.406;2022-11-27T16:18:32;1.60;;;0.80;;
33814;SDS011;20121;51.910;8.406;2022-11-27T16:21:06;1.55;;;1.08;;
33814;SDS011;20121;51.910;8.406;2022-11-27T16:23:33;1.80;;;1.00;;
33814;SDS011;20121;51.910;8.406;2022-11-27T16:25:59;0.90;;;0.90;;
33814;SDS011;20121;51.910;8.406;2022-11-27T16:28:26;1.33;;;1.13;;
33814;SDS011;20121;51.910;8.406;2022-11-27T16:30:53;1.13;;;1.00;;
33814;SDS011;20121;51.910;8.406;2022-11-27T16:33:26;1.58;;;1.17;;
33814;SDS011;20121;51.910;8.406;2022-11-27T16:35:53;2.05;;;1.30;;
33814;SDS011;20121;51.910;8.406;2022-11-27T16:38:19;2.10;;;1.57;;
33814;SDS011;20121;51.910;8.406;2022-11-27T16:40:45;1.43;;;1.33;;
33814;SDS011;20121;51.910;8.406;2022-11-27T16:43:12;1.45;;;1.15;;
33814;SDS011;20121;51.910;8.406;2022-11-27T16:45:38;3.15;;;1.45;;
33814;SDS011;20121;51.910;8.406;2022-11-27T16:48:04;3.37;;;0.90;;
33814;SDS011;20121;51.910;8.406;2022-11-27T16:50:29;8.10;;;1.00;;
33814;SDS011;20121;51.910;8.406;2022-11-27T16:52:56;1.00;;;1.00;;
33814;SDS011;20121;51.910;8.406;2022-11-27T16:55:22;1.30;;;1.00;;
33814;SDS011;20121;51.910;8.406;2022-11-27T16:57:48;0.95;;;0.85;;